• Join FlightAware (Why Join?)
  • Login
  • US Flag 
11:39AM EDT


 

Airport Tracker/Info


-or-


 

Live Flight TrackerFlight Track Log ✈ DCM315 ✈ 12-Mar-2014 ✈ KMBL - KPIE

Flight Track Log - Related Links

Times and Time Zones

All times are in EDT time to prevent confusion due to time zone crossing. See the DCM315 flight status page for this flight to view local times or setup timezone preferences in your user account.

Time Position Orientation Groundspeed Altitude Reporting Facility
EDT Latitude Longitude Course Direction KTS MPH feet Rate Location/Type
03:34PM 44.2022 -86.1867 163° South 210 242 5,800  Level Minneapolis Center
03:35PM 44.1244 -86.1611 167° South 283 326 8,900 3,420 Climbing Minneapolis Center
03:36PM 44.0197 -86.1253 166° South 338 389 12,900 3,900 Climbing Minneapolis Center
03:37PM 43.9133 -86.0911 167° South 384 442 16,900 3,600 Climbing Minneapolis Center
03:39PM 43.8036 -86.0556 167° South 400 460 20,400 3,000 Climbing Minneapolis Center
03:40PM 44.2323 -86.2301 163° South  Level FlightAware Approximate
03:40PM 43.6928 -86.0194 167° South 404 465 23,100  Level Minneapolis Center
03:41PM 43.5792 -85.9839 167° South 420 483 25,400 1,380 Climbing Chicago Center
03:42PM 43.4597 -85.9458 167° South 433 498 26,000 240 Climbing Chicago Center
03:43PM 43.3150 -85.8992 167° South 443 510 26,000  Level Chicago Center
03:44PM 43.1894 -85.8603 167° South 457 526 26,000 480 Level Chicago Center
03:45PM 43.0628 -85.8225 168° South 456 525 27,100 1,200 Climbing Chicago Center
03:46PM 42.9328 -85.7806 167° South 467 537 28,500 1,500 Climbing Chicago Center
03:47PM 42.8056 -85.7406 167° South 468 539 30,200 1,380 Climbing Chicago Center
03:48PM 42.6803 -85.7017 167° South 463 533 31,400 1,020 Climbing Chicago Center
03:49PM 42.5550 -85.6631 167° South 462 532 32,400 720 Climbing Chicago Center
03:50PM 42.4294 -85.6239 167° South 462 532 33,000 240 Climbing Chicago Center
03:51PM 42.3031 -85.5856 167° South 464 534 33,000  Level Chicago Center
03:52PM 42.1739 -85.5467 167° South 476 548 33,000  Level Chicago Center
03:53PM 42.0203 -85.4994 167° South 474 545 33,000  Level Chicago Center
03:54PM 41.9028 -85.4636 167° South 475 547 33,000  Level Chicago Center
03:55PM 41.7728 -85.4239 167° South 479 551 33,000  Level Chicago Center
03:56PM 41.6319 -85.3831 168° South 475 547 33,000  Level Chicago Center
03:57PM 41.5053 -85.3436 167° South 473 544 33,000  Level Chicago Center
03:58PM 41.3753 -85.3036 167° South 475 547 33,000  Level Chicago Center
03:59PM 41.2461 -85.2653 167° South 477 549 33,000  Level Chicago Center
04:00PM 41.0906 -85.2197 168° South 477 549 33,000  Level Chicago Center
04:01PM 40.9614 -85.1806 167° South 477 549 33,000  Level Chicago Center
04:02PM 40.8333 -85.1308 164° South 477 549 33,000  Level Chicago Center
04:03PM 40.7053 -85.0792 163° South 480 552 33,000  Level Chicago Center
04:04PM 40.5861 -85.0369 165° South 477 549 33,000  Level Chicago Center
04:05PM 40.4333 -84.9769 163° South 476 548 33,000  Level Chicago Center
04:06PM 40.3050 -84.9283 164° South 478 550 33,000  Level Chicago Center
04:07PM 40.1775 -84.8789 163° South 477 549 33,000  Level Chicago Center
04:08PM 40.0503 -84.8300 164° South 475 547 33,000  Level Chicago Center
04:09PM 39.9217 -84.7819 164° South 477 549 33,000  Level Chicago Center
04:10PM 39.7956 -84.7331 163° South 475 547 33,000  Level Chicago Center
04:11PM 39.6692 -84.6856 164° South 474 545 33,000  Level Chicago Center
04:13PM 39.5042 -84.6261 164° South 474 545 33,000  Level Indianapolis Center
04:14PM 39.3531 -84.5692 164° South 474 545 33,000  Level Indianapolis Center
04:15PM 39.2261 -84.5228 164° South 474 545 33,000  Level Indianapolis Center
04:16PM 39.1011 -84.4767 164° South 473 544 33,000  Level Indianapolis Center
04:17PM 38.9750 -84.4303 164° South 473 544 33,000  Level Indianapolis Center
04:18PM 38.8467 -84.3833 164° South 476 548 33,000  Level Indianapolis Center
04:19PM 38.7181 -84.3372 164° South 478 550 33,000  Level Indianapolis Center
04:20PM 38.5656 -84.2922 167° South 476 548 33,000  Level Indianapolis Center
04:21PM 38.4361 -84.2775 175° South 471 542 33,000  Level Indianapolis Center
04:22PM 38.3078 -84.2553 172° South 467 537 33,000  Level Indianapolis Center
04:23PM 38.1794 -84.2322 172° South 467 537 33,000  Level Indianapolis Center
04:24PM 38.0328 -84.2047 172° South 460 529 33,000  Level Indianapolis Center
04:25PM 37.9056 -84.1833 172° South 460 529 33,000  Level Indianapolis Center
04:26PM 37.7783 -84.1614 172° South 461 531 33,000  Level Indianapolis Center
04:27PM 37.6528 -84.1408 173° South 460 529 33,000  Level Indianapolis Center
04:28PM 37.5256 -84.1189 172° South 460 529 33,000  Level Indianapolis Center
04:29PM 37.3986 -84.0992 173° South 460 529 33,000  Level Indianapolis Center
04:30PM 37.2503 -84.0739 172° South 460 529 33,000  Level Indianapolis Center
04:31PM 37.1225 -84.0531 173° South 461 531 33,000  Level Indianapolis Center
04:32PM 36.9956 -84.0319 172° South 461 531 33,000  Level Indianapolis Center
04:33PM 36.8686 -84.0106 172° South 461 531 33,000  Level Indianapolis Center
04:34PM 36.7203 -83.9869 173° South 461 531 33,000  Level Indianapolis Center
04:35PM 36.5939 -83.9667 173° South 461 531 33,000  Level Indianapolis Center
04:36PM 36.4653 -83.9453 172° South 461 531 33,000  Level Indianapolis Center
04:38PM 36.3389 -83.9242 172° South 460 529 33,000  Level Indianapolis Center
04:39PM 36.2125 -83.9044 173° South 460 529 33,000  Level Indianapolis Center
04:40PM 36.0850 -83.8836 172° South 459 528 33,000  Level Indianapolis Center
04:40PM 36.0103 -83.8744 174° South 464 534 33,000  Level Atlanta Center
04:41PM 35.8808 -83.8542 173° South 464 534 33,000  Level Atlanta Center
04:42PM 35.7556 -83.8314 172° South 464 534 33,000  Level Atlanta Center
04:43PM 35.6264 -83.8139 174° South 464 534 33,000  Level Atlanta Center
04:44PM 35.5261 -83.7964 172° South 464 534 33,000  Level Atlanta Center
04:45PM 35.3864 -83.7764 173° South 464 534 33,000 120 Level Atlanta Center
04:46PM 35.2569 -83.7564 173° South 464 534 33,300 600 Climbing Atlanta Center
04:47PM 35.1336 -83.7339 172° South 464 534 34,300 840 Climbing Atlanta Center
04:48PM 35.0125 -83.7167 173° South 453 521 35,000 300 Climbing Atlanta Center
04:49PM 34.8769 -83.6894 171° South 448 516 35,000  Level Atlanta Center
04:50PM 34.7494 -83.6722 174° South 458 527 35,000  Level Atlanta Center
04:51PM 34.6200 -83.6500 172° South 466 536 35,000  Level Atlanta Center
04:52PM 34.4886 -83.6331 174° South 466 536 35,000  Level Atlanta Center
04:53PM 34.3736 -83.6133 172° South 466 536 35,000  Level Atlanta Center
04:54PM 34.2464 -83.5964 174° South 466 536 35,000  Level Atlanta Center
04:55PM 34.1169 -83.5744 172° South 466 536 35,000  Level Atlanta Center
04:56PM 33.9833 -83.5528 172° South 466 536 35,000  Level Atlanta Center
04:57PM 33.8453 -83.5336 173° South 466 536 35,000  Level Atlanta Center
04:58PM 33.7139 -83.5144 173° South 466 536 35,000  Level Atlanta Center
04:59PM 33.5844 -83.4978 174° South 471 542 35,000  Level Atlanta Center
05:00PM 33.4569 -83.4761 172° South 471 542 35,000  Level Atlanta Center
05:01PM 33.3233 -83.4594 174° South 471 542 35,000  Level Atlanta Center
05:02PM 33.1936 -83.4306 169° South 481 554 35,000  Level Atlanta Center
05:03PM 33.0619 -83.3844 164° South 488 562 35,000 -120 Level Atlanta Center
05:04PM 32.9469 -83.3458 164° South 488 562 34,800 -540 Descending Atlanta Center
05:05PM 32.8194 -83.3022 164° South 488 562 34,000 -300 Descending Atlanta Center
05:07PM 32.5378 -83.2081 164° South 497 572 34,000  Level Jacksonville Center
05:08PM 32.3981 -83.1608 164° South 487 560 34,000  Level Jacksonville Center
05:09PM 32.2644 -83.1161 164° South 487 560 34,000  Level Jacksonville Center
05:10PM 32.1331 -83.0742 165° South 492 566 34,000  Level Jacksonville Center
05:11PM 32.0014 -83.0322 165° South 492 566 34,000  Level Jacksonville Center
05:12PM 31.8681 -82.9881 164° South 492 566 34,000  Level Jacksonville Center
05:13PM 31.7364 -82.9439 164° South 487 560 34,000  Level Jacksonville Center
05:14PM 31.6050 -82.9022 165° South 487 560 34,000  Level Jacksonville Center
05:15PM 31.4756 -82.8583 164° South 492 566 34,000  Level Jacksonville Center
05:16PM 31.3439 -82.8197 166° South 487 560 34,000  Level Jacksonville Center
05:17PM 31.2144 -82.7761 164° South 487 560 34,000  Level Jacksonville Center
05:18PM 31.1078 -82.7444 166° South 487 560 34,000  Level Jacksonville Center
05:19PM 30.9636 -82.7011 166° South 487 560 34,000  Level Jacksonville Center
05:20PM 30.8342 -82.6603 165° South 487 560 34,000  Level Jacksonville Center
05:21PM 30.7047 -82.6172 164° South 487 560 34,000 -300 Level Jacksonville Center
05:22PM 30.5753 -82.5764 165° South 487 560 33,400 -900 Descending Jacksonville Center
05:23PM 30.4456 -82.5408 167° South 487 560 32,200 -1,260 Descending Jacksonville Center
05:24PM 30.3181 -82.4811 158° South 482 555 30,900 -1,320 Descending Jacksonville Center
05:25PM 30.2092 -82.3733 139° Southeast 493 567 29,600 -1,440 Descending Jacksonville Center
05:26PM 30.0792 -82.2686 145° Southeast 523 602 28,100 -1,380 Descending Jacksonville Center
05:27PM 29.9558 -82.2550 175° South 468 539 26,900 -600 Descending Jacksonville Center
05:28PM 29.8581 -82.3033 203° Southwest 385 443 27,000  Climbing Jacksonville Center
05:29PM 29.7664 -82.3686 212° Southwest 376 433 27,000  Level Jacksonville Center
05:30PM 29.6517 -82.3739 182° South 389 448 27,000 -60 Level Jacksonville Center
05:31PM 29.5325 -82.3458 168° South 415 478 26,900 -600 Descending Jacksonville Center
05:32PM 29.4133 -82.3203 169° South 432 497 25,900 -1,620 Descending Jacksonville Center
05:33PM 29.2964 -82.2997 171° South 432 497 23,700 -2,100 Descending Jacksonville Center
05:34PM 29.1961 -82.2764 169° South 425 489 21,700 -2,220 Descending Jacksonville Center
05:35PM 29.0856 -82.2606 173° South 413 475 19,300 -2,520 Descending Jacksonville Center
05:36PM 28.9811 -82.2611 180° South 394 453 16,700 -2,580 Descending Jacksonville Center
05:37PM 28.8683 -82.2642 181° South 381 438 14,200 -1,500 Descending Jacksonville Center
05:39PM 28.7000 -82.2667 181° South 357 411 12,900 -900 Descending Tampa TRACON
05:40PM 28.6000 -82.2500 172° South 361 415 11,900 -1,140 Descending Tampa TRACON
05:41PM 28.5167 -82.2500 180° South 349 402 10,700 -960 Descending Tampa TRACON
05:42PM 28.4500 -82.3167 221° Southwest 309 356 10,000 -420 Descending Tampa TRACON
05:43PM 28.4500 -82.4167 270° West 297 342 9,900 -720 Descending Tampa TRACON
05:44PM 28.4500 -82.5000 270° West 244 281 8,600 -1,440 Descending Tampa TRACON
05:45PM 28.4333 -82.5667 254° West 229 264 7,200 -1,680 Descending Tampa TRACON
05:46PM 28.4000 -82.6167 233° Southwest 225 259 5,500 -1,620 Descending Tampa TRACON
05:47PM 28.3667 -82.6667 233° Southwest 223 257 4,000 -780 Descending Tampa TRACON
05:48PM 28.3167 -82.7167 221° Southwest 217 250 4,000  Level Tampa TRACON
05:49PM 28.2667 -82.7667 221° Southwest 239 275 4,000  Level Tampa TRACON
05:50PM 28.2000 -82.8000 204° Southwest 250 288 4,000  Level Tampa TRACON
05:51PM 28.1333 -82.8000 180° South 265 305 4,000  Level Tampa TRACON
05:52PM 28.0667 -82.8000 180° South 256 295 4,000  Level Tampa TRACON
05:53PM 28.0000 -82.7833 168° South 245 282 4,000 -180 Level Tampa TRACON
05:54PM 27.9333 -82.7833 180° South 244 281 3,700 -840 Descending Tampa TRACON
05:55PM 27.8667 -82.7667 168° South 240 276 2,400 -960 Descending Tampa TRACON
05:56PM 27.8167 -82.7333 149° Southeast 211 243 1,700 -420 Descending Tampa TRACON
05:57PM 27.8333 -82.6833 69° East 154 177 1,500 -360 Descending Tampa TRACON
05:58PM 27.8667 -82.6833 360° North 117 135 1,000 -660 Descending Tampa TRACON
05:59PM 27.9000 -82.6833 360° North 110 127 300 -720 Descending Tampa TRACON
06:01PM 27.9100 -82.6875 North  Level Estimated
06:08PM 27.9100 -82.6875 North  Level Estimated